OK58 weather

Bluestem Airport
Collinsville, Oklahoma, United States

Public forecast

Using degrees Fahrenheit for public forecast. Weather courtesy of forecast.io.

Closest aviation weather report (METAR) to Bluestem Airport

Closest report is Tulsa International Airport, 12.0 nm (22.2 km) S. Retrieved 2019/10/20 14:53 UTC (13 minutes ago):

KTUL 201453Z 12007KT 9SM R18L/2000V2800FT CLR 15/14 A2980 RMK AO2 SLP087 T01500139 58004

Closest aviation forecast (TAF) to Bluestem Airport

Closest forecast is Tulsa International Airport, 12.0 nm (22.2 km) S. Retrieved 2019/10/20 12:22 UTC (3 hours ago):

TAF KTUL 201120Z 2012/2112 00000KT 3SM BR SKC TEMPO 2012/2014 1SM BR SCT005 FM201600 17013G19KT P6SM SCT250 FM210100 VRB10KT P6SM VCTS BKN060CB TEMPO 2102/2106 VRB15G30KT 3SM TSRA BKN025CB FM210600 33010KT P6SM BKN070